Airfield :
LOGIN :

Register | Disclaimer

   EN    FR    IT 

 










Legend :    VFR   Marginal VFR   IFR   Intensive IFR   Very Intensive IFR
Visi :
Ceiling :
>= 8 km
>= 3000ft
5 to 8 km
1000 to 3000 ft
1500m to 5 km
500 to 1000 ft
800 to 1500m
200 to 500 ft
< 800m
< 200 ft
Symbols :   Thunderstorms  Fog  Heavy snow  Heavy precipitations  Wind > 20 kt
SIGMETs :     Misc.  Thunderstorms  Icing  Turbulence  Mountain Waves  Volcanic Ashes







- Airport Elevation : 333 ft


LIPL - Ghedi Brescia (Mil)

CURRENT METAR :
  • 141655Z 17002KT 5000 BR FEW050 23/20 Q1012 RMK BKN SCT100 VIS MIN 5000 WIND THR31 17002KT WIND THR13 16002KT WHT

EXPIRED METARs :
  • 141555Z 22002KT 5000 BR FEW036 22/19 Q1012 RMK BKN SCT090 VIS MIN 5000 WIND THR31 23003KT WIND THR13 23002KT WHT
  • 141455Z 17003KT 5000 BR FEW036 SCT050 21/19 Q1012 RMK BKN VIS MIN 5000 WIND THR31 20005KT WIND THR13 24004KT WHT

TAF TAF LIPL
Valid from the 14 at 15:00 until the 15 at 00:00 UTC


141400Z 1415/1424 10004KT 6000 SCT035 SCT070
TEMPO 1415/1417 4000 TSRA FEW015 FEW025CB BKN035
No reported NOTAMs for that airfield.
2 SIGMETs reported for the Milano FIR (LIMM) :
 
Embedded thunderstorms
LIMM SIGMET 4 VALID 141410/141810 LIIP
LIMM MILANO FIR EMBD TS FCST SE OF LINE N4405 E00658 - N4644 E01247 TOP FL420 STNR NC=
Severe turbulence
LIMM SIGMET 3 VALID 141400/141800 LIIP
LIMM MILANO FIR SEV TURB FCST W OF LINE N4658 E01038 - N4327 E01024 FL240/380 MOV E NC=



MET'MAP, your aeronautical weather chart ! - Copyright ORBIFLY December 2007 - Disclaimer

ORBIFLY MET'MAP TEAM :

Programming & Development : Alexandra Zaïnal
Concept & Development : Baudouin d'Aumeries
Co-Development & Prog : Marc-Olivier Méhu
Technical & hardware support : Manuel Goepfert

Contact : metmap@orbifly.com




SOURCES & CREDITS :

   NOAA